Borba, Brazil
Current Conditions -  °F | °C
As of 5:00 AM on Sunday 26 Oct 2014 (Local Time) from SBPA Reporting Station
Scattered Clouds Scattered Clouds  
Wind Chill: 68°   Ceiling: Unl
Heat Index: 68°   Visibility: 5mi
Dew Point: 66°   Wind: 10mph
Humidity: 94%   Direction: 110°ESE
Pressure: 29.88"   Gusts: NA
Location:  30.97°S, 52.38°W
Report Text: SBPA 260700Z 11009KT 8000 SCT008 20/19 Q1012
Loading
Personal Weather Stations






























Interactive Weather Map
Tropical Storm Tracking
New forecast layout! Learn more

10-Day Weather Forecast

Advertisements
Track Severe Weather on mobile